sensor_id;sensor_type;location;lat;lon;timestamp;P1;P2;P0
68841;PMS5003;55849;48.482;2.332;2023-02-01T00:02:35;6.25;6.00;4.00
68841;PMS5003;55849;48.482;2.332;2023-02-01T00:05:40;9.75;5.50;5.00
68841;PMS5003;55849;48.482;2.332;2023-02-01T00:08:42;3.50;3.50;3.00
68841;PMS5003;55849;48.482;2.332;2023-02-01T00:11:45;2.75;2.00;2.00
68841;PMS5003;55849;48.482;2.332;2023-02-01T00:14:46;2.00;2.00;1.00
68841;PMS5003;55849;48.482;2.332;2023-02-01T00:17:49;7.00;4.00;2.50
68841;PMS5003;55849;48.482;2.332;2023-02-01T00:20:54;4.50;4.50;1.50
68841;PMS5003;55849;48.482;2.332;2023-02-01T00:23:55;7.00;6.75;5.00
68841;PMS5003;55849;48.482;2.332;2023-02-01T00:26:59;8.50;3.50;3.00
68841;PMS5003;55849;48.482;2.332;2023-02-01T00:30:00;7.75;5.75;3.00
68841;PMS5003;55849;48.482;2.332;2023-02-01T00:33:02;4.00;4.00;2.00
68841;PMS5003;55849;48.482;2.332;2023-02-01T00:36:04;6.50;6.50;4.00
68841;PMS5003;55849;48.482;2.332;2023-02-01T00:39:07;9.75;6.00;4.50
68841;PMS5003;55849;48.482;2.332;2023-02-01T00:42:11;7.50;5.00;2.50
68841;PMS5003;55849;48.482;2.332;2023-02-01T00:45:12;7.00;6.00;3.25
68841;PMS5003;55849;48.482;2.332;2023-02-01T00:48:14;4.00;4.00;3.00
68841;PMS5003;55849;48.482;2.332;2023-02-01T00:51:16;9.25;4.00;3.00
68841;PMS5003;55849;48.482;2.332;2023-02-01T00:54:19;12.25;8.00;5.50
68841;PMS5003;55849;48.482;2.332;2023-02-01T00:57:22;8.50;6.00;3.00
68841;PMS5003;55849;48.482;2.332;2023-02-01T01:00:23;3.50;3.50;1.00
68841;PMS5003;55849;48.482;2.332;2023-02-01T01:03:25;6.00;6.00;5.00
68841;PMS5003;55849;48.482;2.332;2023-02-01T01:06:27;3.50;3.00;1.00
68841;PMS5003;55849;48.482;2.332;2023-02-01T01:09:31;9.00;7.00;6.00
68841;PMS5003;55849;48.482;2.332;2023-02-01T01:12:34;9.25;6.25;3.00
68841;PMS5003;55849;48.482;2.332;2023-02-01T01:15:35;6.75;6.00;3.75
68841;PMS5003;55849;48.482;2.332;2023-02-01T01:18:38;4.50;4.50;3.25
68841;PMS5003;55849;48.482;2.332;2023-02-01T01:21:39;4.50;4.50;4.00
68841;PMS5003;55849;48.482;2.332;2023-02-01T01:24:41;7.50;5.00;3.75
68841;PMS5003;55849;48.482;2.332;2023-02-01T01:27:44;9.00;4.50;3.00
68841;PMS5003;55849;48.482;2.332;2023-02-01T01:30:45;7.75;5.50;3.50
68841;PMS5003;55849;48.482;2.332;2023-02-01T01:33:48;6.00;3.25;1.00
68841;PMS5003;55849;48.482;2.332;2023-02-01T01:36:50;9.50;6.00;3.00
68841;PMS5003;55849;48.482;2.332;2023-02-01T01:39:52;5.50;5.50;4.00
68841;PMS5003;55849;48.482;2.332;2023-02-01T01:42:57;6.00;6.00;4.00
68841;PMS5003;55849;48.482;2.332;2023-02-01T01:45:59;5.50;5.50;3.25
68841;PMS5003;55849;48.482;2.332;2023-02-01T01:49:02;9.25;6.00;4.00
68841;PMS5003;55849;48.482;2.332;2023-02-01T01:52:07;9.25;7.00;4.00
68841;PMS5003;55849;48.482;2.332;2023-02-01T01:55:09;7.00;7.00;4.50
68841;PMS5003;55849;48.482;2.332;2023-02-01T01:58:13;5.00;5.00;3.00
68841;PMS5003;55849;48.482;2.332;2023-02-01T02:01:19;7.00;5.00;3.00
68841;PMS5003;55849;48.482;2.332;2023-02-01T02:04:20;9.00;8.50;6.00
68841;PMS5003;55849;48.482;2.332;2023-02-01T02:07:24;8.25;7.25;3.00
68841;PMS5003;55849;48.482;2.332;2023-02-01T02:10:31;7.00;4.00;3.00
68841;PMS5003;55849;48.482;2.332;2023-02-01T02:13:53;5.50;4.00;3.75
68841;PMS5003;55849;48.482;2.332;2023-02-01T02:16:58;6.25;6.25;3.75
68841;PMS5003;55849;48.482;2.332;2023-02-01T02:20:20;9.50;6.50;3.00
68841;PMS5003;55849;48.482;2.332;2023-02-01T02:23:42;5.25;3.00;3.00
68841;PMS5003;55849;48.482;2.332;2023-02-01T02:27:06;12.75;8.00;4.00
68841;PMS5003;55849;48.482;2.332;2023-02-01T02:30:40;7.25;4.50;3.00
68841;PMS5003;55849;48.482;2.332;2023-02-01T02:34:04;6.50;4.00;3.00
68841;PMS5003;55849;48.482;2.332;2023-02-01T02:37:13;5.50;3.50;1.00
68841;PMS5003;55849;48.482;2.332;2023-02-01T02:40:25;6.50;3.75;1.00
68841;PMS5003;55849;48.482;2.332;2023-02-01T02:43:35;5.00;5.00;3.00
68841;PMS5003;55849;48.482;2.332;2023-02-01T02:47:06;6.00;3.25;1.50
68841;PMS5003;55849;48.482;2.332;2023-02-01T02:50:29;9.00;8.50;3.00
68841;PMS5003;55849;48.482;2.332;2023-02-01T02:54:00;5.50;3.00;1.00
68841;PMS5003;55849;48.482;2.332;2023-02-01T02:57:25;9.75;6.50;4.00
68841;PMS5003;55849;48.482;2.332;2023-02-01T03:00:48;4.50;3.25;3.25
68841;PMS5003;55849;48.482;2.332;2023-02-01T03:04:09;7.00;3.00;2.00
68841;PMS5003;55849;48.482;2.332;2023-02-01T03:11:00;3.00;3.00;1.50
68841;PMS5003;55849;48.482;2.332;2023-02-01T03:14:06;6.00;6.00;4.00
68841;PMS5003;55849;48.482;2.332;2023-02-01T03:17:09;6.50;5.50;3.00
68841;PMS5003;55849;48.482;2.332;2023-02-01T03:20:15;8.00;6.00;3.50
68841;PMS5003;55849;48.482;2.332;2023-02-01T03:23:22;7.00;5.50;4.00
68841;PMS5003;55849;48.482;2.332;2023-02-01T03:26:29;6.25;4.00;3.00
68841;PMS5003;55849;48.482;2.332;2023-02-01T03:29:36;4.00;4.00;3.25
68841;PMS5003;55849;48.482;2.332;2023-02-01T03:32:46;6.00;6.00;3.00
68841;PMS5003;55849;48.482;2.332;2023-02-01T03:36:05;10.75;3.75;3.00
68841;PMS5003;55849;48.482;2.332;2023-02-01T03:39:15;6.00;6.00;3.00
68841;PMS5003;55849;48.482;2.332;2023-02-01T03:42:23;3.25;3.25;3.00
68841;PMS5003;55849;48.482;2.332;2023-02-01T03:45:29;3.00;3.00;2.50
68841;PMS5003;55849;48.482;2.332;2023-02-01T03:48:35;3.25;3.00;2.50
68841;PMS5003;55849;48.482;2.332;2023-02-01T03:51:38;2.50;2.50;0.75
68841;PMS5003;55849;48.482;2.332;2023-02-01T03:54:41;3.50;3.00;3.00
68841;PMS5003;55849;48.482;2.332;2023-02-01T03:57:46;0.50;0.50;0.00
68841;PMS5003;55849;48.482;2.332;2023-02-01T04:00:53;4.00;4.00;1.00
68841;PMS5003;55849;48.482;2.332;2023-02-01T04:03:56;3.00;3.00;1.00
68841;PMS5003;55849;48.482;2.332;2023-02-01T04:06:58;2.75;2.00;1.00
68841;PMS5003;55849;48.482;2.332;2023-02-01T04:10:00;5.00;2.50;1.50
68841;PMS5003;55849;48.482;2.332;2023-02-01T04:13:05;6.00;3.00;0.75
68841;PMS5003;55849;48.482;2.332;2023-02-01T04:16:07;3.00;1.00;1.00
68841;PMS5003;55849;48.482;2.332;2023-02-01T04:19:09;2.00;2.00;1.50
68841;PMS5003;55849;48.482;2.332;2023-02-01T04:22:10;3.00;3.00;1.00
68841;PMS5003;55849;48.482;2.332;2023-02-01T04:25:12;9.00;3.00;1.00
68841;PMS5003;55849;48.482;2.332;2023-02-01T04:28:15;2.50;2.50;1.00
68841;PMS5003;55849;48.482;2.332;2023-02-01T04:31:17;3.75;1.50;1.00
68841;PMS5003;55849;48.482;2.332;2023-02-01T04:34:25;3.50;1.00;1.00
68841;PMS5003;55849;48.482;2.332;2023-02-01T04:37:26;2.00;2.00;1.00
68841;PMS5003;55849;48.482;2.332;2023-02-01T04:40:28;3.75;2.50;0.75
68841;PMS5003;55849;48.482;2.332;2023-02-01T04:43:31;0.00;0.00;0.00
68841;PMS5003;55849;48.482;2.332;2023-02-01T04:46:33;2.25;1.50;1.00
68841;PMS5003;55849;48.482;2.332;2023-02-01T04:49:35;3.25;1.00;0.25
68841;PMS5003;55849;48.482;2.332;2023-02-01T04:52:36;3.25;1.50;1.00
68841;PMS5003;55849;48.482;2.332;2023-02-01T04:55:38;5.00;1.00;1.00
68841;PMS5003;55849;48.482;2.332;2023-02-01T04:58:41;2.25;1.00;1.00
68841;PMS5003;55849;48.482;2.332;2023-02-01T05:01:42;2.75;1.00;1.00
68841;PMS5003;55849;48.482;2.332;2023-02-01T05:04:44;3.00;0.25;0.25
68841;PMS5003;55849;48.482;2.332;2023-02-01T05:07:46;4.00;4.00;3.00
68841;PMS5003;55849;48.482;2.332;2023-02-01T05:10:47;1.00;1.00;1.00
68841;PMS5003;55849;48.482;2.332;2023-02-01T05:13:51;0.75;0.25;0.00
68841;PMS5003;55849;48.482;2.332;2023-02-01T05:16:52;4.75;3.00;0.00
68841;PMS5003;55849;48.482;2.332;2023-02-01T05:19:54;3.25;2.00;1.00
68841;PMS5003;55849;48.482;2.332;2023-02-01T05:22:55;1.00;1.00;1.00
68841;PMS5003;55849;48.482;2.332;2023-02-01T05:26:00;0.25;0.00;0.00
68841;PMS5003;55849;48.482;2.332;2023-02-01T05:29:03;0.25;0.25;0.00
68841;PMS5003;55849;48.482;2.332;2023-02-01T05:32:08;1.00;1.00;1.00
68841;PMS5003;55849;48.482;2.332;2023-02-01T05:35:10;1.00;1.00;0.00
68841;PMS5003;55849;48.482;2.332;2023-02-01T05:38:12;6.00;1.00;0.25
68841;PMS5003;55849;48.482;2.332;2023-02-01T05:41:14;1.50;0.25;0.00
68841;PMS5003;55849;48.482;2.332;2023-02-01T05:44:17;0.00;0.00;0.00
68841;PMS5003;55849;48.482;2.332;2023-02-01T05:47:18;1.00;1.00;1.00
68841;PMS5003;55849;48.482;2.332;2023-02-01T05:50:20;4.00;3.00;0.00
68841;PMS5003;55849;48.482;2.332;2023-02-01T05:53:22;2.00;2.00;0.50
68841;PMS5003;55849;48.482;2.332;2023-02-01T05:56:24;0.00;0.00;0.00
68841;PMS5003;55849;48.482;2.332;2023-02-01T05:59:27;0.00;0.00;0.00
68841;PMS5003;55849;48.482;2.332;2023-02-01T06:02:29;0.00;0.00;0.00
68841;PMS5003;55849;48.482;2.332;2023-02-01T06:05:31;18.50;15.50;12.75
68841;PMS5003;55849;48.482;2.332;2023-02-01T06:08:32;3.50;3.00;0.00
68841;PMS5003;55849;48.482;2.332;2023-02-01T06:11:34;0.25;0.25;0.00
68841;PMS5003;55849;48.482;2.332;2023-02-01T06:14:37;3.00;1.00;0.75
68841;PMS5003;55849;48.482;2.332;2023-02-01T06:17:38;0.00;0.00;0.00
68841;PMS5003;55849;48.482;2.332;2023-02-01T06:20:41;3.25;0.50;0.00
68841;PMS5003;55849;48.482;2.332;2023-02-01T06:23:42;1.25;0.00;0.00
68841;PMS5003;55849;48.482;2.332;2023-02-01T06:26:44;3.00;3.00;1.00
68841;PMS5003;55849;48.482;2.332;2023-02-01T06:29:47;3.00;3.00;1.00
68841;PMS5003;55849;48.482;2.332;2023-02-01T06:32:50;1.00;1.00;0.50
68841;PMS5003;55849;48.482;2.332;2023-02-01T06:35:57;0.00;0.00;0.00
68841;PMS5003;55849;48.482;2.332;2023-02-01T06:38:59;3.00;3.00;0.00
68841;PMS5003;55849;48.482;2.332;2023-02-01T06:42:01;1.00;1.00;0.00
68841;PMS5003;55849;48.482;2.332;2023-02-01T06:45:04;0.75;0.75;0.75
68841;PMS5003;55849;48.482;2.332;2023-02-01T06:48:07;0.25;0.25;0.25
68841;PMS5003;55849;48.482;2.332;2023-02-01T06:51:16;2.00;1.00;0.75
68841;PMS5003;55849;48.482;2.332;2023-02-01T06:54:21;1.50;1.50;1.00
68841;PMS5003;55849;48.482;2.332;2023-02-01T06:57:22;3.75;1.00;0.25
68841;PMS5003;55849;48.482;2.332;2023-02-01T07:00:26;1.00;1.00;1.00
68841;PMS5003;55849;48.482;2.332;2023-02-01T07:03:28;6.50;4.00;3.00
68841;PMS5003;55849;48.482;2.332;2023-02-01T07:06:30;2.50;2.50;1.00
68841;PMS5003;55849;48.482;2.332;2023-02-01T07:09:31;4.00;4.00;1.00
68841;PMS5003;55849;48.482;2.332;2023-02-01T07:12:33;1.50;1.50;1.00
68841;PMS5003;55849;48.482;2.332;2023-02-01T07:15:37;3.25;3.25;2.50
68841;PMS5003;55849;48.482;2.332;2023-02-01T07:18:38;3.50;3.00;2.00
68841;PMS5003;55849;48.482;2.332;2023-02-01T07:21:40;4.50;3.75;3.00
68841;PMS5003;55849;48.482;2.332;2023-02-01T07:24:42;7.25;3.75;3.00
68841;PMS5003;55849;48.482;2.332;2023-02-01T07:27:43;3.00;1.00;1.00
68841;PMS5003;55849;48.482;2.332;2023-02-01T07:30:48;2.75;2.50;1.00
68841;PMS5003;55849;48.482;2.332;2023-02-01T07:33:50;5.00;2.50;1.00
68841;PMS5003;55849;48.482;2.332;2023-02-01T07:36:52;1.00;1.00;1.00
68841;PMS5003;55849;48.482;2.332;2023-02-01T07:39:54;3.75;3.75;1.50
68841;PMS5003;55849;48.482;2.332;2023-02-01T07:42:55;9.50;5.50;3.00
68841;PMS5003;55849;48.482;2.332;2023-02-01T07:45:58;8.00;4.00;3.00
68841;PMS5003;55849;48.482;2.332;2023-02-01T07:49:01;5.00;3.00;2.00
68841;PMS5003;55849;48.482;2.332;2023-02-01T07:52:02;4.00;4.00;3.00
68841;PMS5003;55849;48.482;2.332;2023-02-01T07:55:04;8.00;4.50;4.00
68841;PMS5003;55849;48.482;2.332;2023-02-01T07:58:07;6.75;6.25;3.50
68841;PMS5003;55849;48.482;2.332;2023-02-01T08:01:14;1.00;1.00;1.00
68841;PMS5003;55849;48.482;2.332;2023-02-01T08:04:24;4.00;4.00;2.00
68841;PMS5003;55849;48.482;2.332;2023-02-01T08:07:25;3.25;3.25;1.50
68841;PMS5003;55849;48.482;2.332;2023-02-01T08:10:27;2.50;0.00;0.00
68841;PMS5003;55849;48.482;2.332;2023-02-01T08:13:28;3.00;3.00;1.00
68841;PMS5003;55849;48.482;2.332;2023-02-01T08:16:32;2.75;2.50;1.00
68841;PMS5003;55849;48.482;2.332;2023-02-01T08:19:35;0.75;0.75;0.75
68841;PMS5003;55849;48.482;2.332;2023-02-01T08:22:36;1.50;1.50;1.00
68841;PMS5003;55849;48.482;2.332;2023-02-01T08:25:38;3.50;3.00;1.00
68841;PMS5003;55849;48.482;2.332;2023-02-01T08:28:40;5.50;5.00;3.00
68841;PMS5003;55849;48.482;2.332;2023-02-01T08:31:44;6.00;3.50;3.00
68841;PMS5003;55849;48.482;2.332;2023-02-01T08:34:46;5.50;5.50;2.50
68841;PMS5003;55849;48.482;2.332;2023-02-01T08:37:48;8.00;3.50;2.50
68841;PMS5003;55849;48.482;2.332;2023-02-01T08:40:50;5.50;2.00;1.00
68841;PMS5003;55849;48.482;2.332;2023-02-01T08:43:52;10.25;5.25;1.00
68841;PMS5003;55849;48.482;2.332;2023-02-01T08:46:56;3.00;1.00;1.00
68841;PMS5003;55849;48.482;2.332;2023-02-01T08:49:57;7.50;4.00;3.00
68841;PMS5003;55849;48.482;2.332;2023-02-01T08:52:59;6.25;3.00;3.00
68841;PMS5003;55849;48.482;2.332;2023-02-01T08:56:01;4.00;4.00;1.00
68841;PMS5003;55849;48.482;2.332;2023-02-01T08:59:03;3.00;3.00;1.00
68841;PMS5003;55849;48.482;2.332;2023-02-01T09:02:06;4.00;4.00;3.00
68841;PMS5003;55849;48.482;2.332;2023-02-01T09:05:09;6.25;6.00;2.50
68841;PMS5003;55849;48.482;2.332;2023-02-01T09:08:11;8.25;3.00;2.00
68841;PMS5003;55849;48.482;2.332;2023-02-01T09:11:16;4.00;1.00;1.00
68841;PMS5003;55849;48.482;2.332;2023-02-01T09:14:19;1.00;1.00;0.75
68841;PMS5003;55849;48.482;2.332;2023-02-01T09:17:22;4.25;3.00;1.00
68841;PMS5003;55849;48.482;2.332;2023-02-01T09:20:24;4.50;3.00;2.00
68841;PMS5003;55849;48.482;2.332;2023-02-01T09:23:25;3.25;3.25;0.75
68841;PMS5003;55849;48.482;2.332;2023-02-01T09:26:27;1.00;1.00;1.00
68841;PMS5003;55849;48.482;2.332;2023-02-01T09:29:29;7.00;4.00;1.50
68841;PMS5003;55849;48.482;2.332;2023-02-01T09:32:32;1.00;1.00;1.00
68841;PMS5003;55849;48.482;2.332;2023-02-01T09:35:34;8.00;5.00;3.00
68841;PMS5003;55849;48.482;2.332;2023-02-01T09:38:35;7.75;5.00;2.50
68841;PMS5003;55849;48.482;2.332;2023-02-01T09:41:40;4.50;1.00;0.00
68841;PMS5003;55849;48.482;2.332;2023-02-01T09:44:53;1.00;1.00;0.75
68841;PMS5003;55849;48.482;2.332;2023-02-01T09:48:08;3.00;3.00;2.00
68841;PMS5003;55849;48.482;2.332;2023-02-01T09:51:14;3.00;1.00;1.00
68841;PMS5003;55849;48.482;2.332;2023-02-01T09:54:22;1.00;1.00;0.00
68841;PMS5003;55849;48.482;2.332;2023-02-01T09:57:28;3.00;3.00;1.00
68841;PMS5003;55849;48.482;2.332;2023-02-01T10:00:41;4.00;4.00;0.00
68841;PMS5003;55849;48.482;2.332;2023-02-01T10:03:58;7.50;2.50;0.00
68841;PMS5003;55849;48.482;2.332;2023-02-01T10:07:06;5.75;3.50;1.00
68841;PMS5003;55849;48.482;2.332;2023-02-01T10:10:20;1.50;1.50;0.25
68841;PMS5003;55849;48.482;2.332;2023-02-01T10:13:31;0.50;0.50;0.50
68841;PMS5003;55849;48.482;2.332;2023-02-01T10:16:43;1.50;1.00;1.00
68841;PMS5003;55849;48.482;2.332;2023-02-01T10:19:55;4.00;1.50;1.00
68841;PMS5003;55849;48.482;2.332;2023-02-01T10:23:04;10.00;10.00;6.00
68841;PMS5003;55849;48.482;2.332;2023-02-01T10:26:20;15.25;12.50;9.25
68841;PMS5003;55849;48.482;2.332;2023-02-01T10:29:24;6.00;3.25;2.00
68841;PMS5003;55849;48.482;2.332;2023-02-01T10:32:32;2.50;1.00;1.00
68841;PMS5003;55849;48.482;2.332;2023-02-01T10:35:36;7.00;6.25;3.75
68841;PMS5003;55849;48.482;2.332;2023-02-01T10:38:38;3.25;3.25;2.00
68841;PMS5003;55849;48.482;2.332;2023-02-01T10:41:40;5.00;3.25;1.00
68841;PMS5003;55849;48.482;2.332;2023-02-01T10:44:43;3.75;3.00;1.00
68841;PMS5003;55849;48.482;2.332;2023-02-01T10:47:48;2.50;2.50;1.00
68841;PMS5003;55849;48.482;2.332;2023-02-01T10:50:54;1.00;1.00;0.00
68841;PMS5003;55849;48.482;2.332;2023-02-01T10:54:00;5.00;3.50;1.50
68841;PMS5003;55849;48.482;2.332;2023-02-01T10:57:07;8.50;3.50;1.00
68841;PMS5003;55849;48.482;2.332;2023-02-01T11:00:18;1.00;1.00;0.00
68841;PMS5003;55849;48.482;2.332;2023-02-01T11:03:21;3.00;3.00;1.00
68841;PMS5003;55849;48.482;2.332;2023-02-01T11:06:36;3.00;0.00;0.00
68841;PMS5003;55849;48.482;2.332;2023-02-01T11:09:39;3.50;3.50;2.50
68841;PMS5003;55849;48.482;2.332;2023-02-01T11:12:42;5.75;3.25;1.50
68841;PMS5003;55849;48.482;2.332;2023-02-01T11:15:55;2.50;2.50;0.00
68841;PMS5003;55849;48.482;2.332;2023-02-01T11:18:57;5.50;4.50;1.00
68841;PMS5003;55849;48.482;2.332;2023-02-01T11:22:01;3.50;3.50;1.00
68841;PMS5003;55849;48.482;2.332;2023-02-01T11:25:07;4.00;1.00;0.75
68841;PMS5003;55849;48.482;2.332;2023-02-01T11:28:11;9.00;4.00;3.00
68841;PMS5003;55849;48.482;2.332;2023-02-01T11:31:13;3.00;1.50;1.00
68841;PMS5003;55849;48.482;2.332;2023-02-01T11:34:16;0.75;0.00;0.00
68841;PMS5003;55849;48.482;2.332;2023-02-01T11:37:21;4.00;3.00;0.50
68841;PMS5003;55849;48.482;2.332;2023-02-01T11:40:27;3.00;0.50;0.00
68841;PMS5003;55849;48.482;2.332;2023-02-01T11:43:30;0.25;0.25;0.25
68841;PMS5003;55849;48.482;2.332;2023-02-01T11:46:32;6.00;3.00;1.00
68841;PMS5003;55849;48.482;2.332;2023-02-01T11:49:37;10.00;3.00;1.00
68841;PMS5003;55849;48.482;2.332;2023-02-01T11:52:51;20.00;18.50;11.00
68841;PMS5003;55849;48.482;2.332;2023-02-01T11:56:23;19.25;17.00;10.75
68841;PMS5003;55849;48.482;2.332;2023-02-01T11:59:35;4.00;4.00;3.50
68841;PMS5003;55849;48.482;2.332;2023-02-01T12:03:04;11.00;6.25;3.50
68841;PMS5003;55849;48.482;2.332;2023-02-01T12:06:23;3.50;3.50;1.50
68841;PMS5003;55849;48.482;2.332;2023-02-01T12:09:35;3.00;3.00;3.00
68841;PMS5003;55849;48.482;2.332;2023-02-01T12:12:45;8.00;4.75;1.50
68841;PMS5003;55849;48.482;2.332;2023-02-01T12:16:01;6.00;3.00;1.00
68841;PMS5003;55849;48.482;2.332;2023-02-01T12:19:11;6.50;6.50;4.00
68841;PMS5003;55849;48.482;2.332;2023-02-01T12:22:28;3.75;3.00;1.00
68841;PMS5003;55849;48.482;2.332;2023-02-01T12:25:43;5.25;4.00;3.00
68841;PMS5003;55849;48.482;2.332;2023-02-01T12:29:12;3.00;1.50;1.00
68841;PMS5003;55849;48.482;2.332;2023-02-01T12:32:34;6.00;6.00;6.00
68841;PMS5003;55849;48.482;2.332;2023-02-01T12:35:53;2.00;2.00;0.75
68841;PMS5003;55849;48.482;2.332;2023-02-01T12:39:10;14.50;9.00;6.00
68841;PMS5003;55849;48.482;2.332;2023-02-01T12:42:37;4.75;1.00;1.00
68841;PMS5003;55849;48.482;2.332;2023-02-01T12:45:52;17.50;17.00;11.50
68841;PMS5003;55849;48.482;2.332;2023-02-01T12:49:02;16.75;15.50;10.50
68841;PMS5003;55849;48.482;2.332;2023-02-01T12:52:20;4.50;4.50;3.00
68841;PMS5003;55849;48.482;2.332;2023-02-01T12:55:32;1.00;1.00;0.50
68841;PMS5003;55849;48.482;2.332;2023-02-01T12:58:40;9.25;7.00;3.25
68841;PMS5003;55849;48.482;2.332;2023-02-01T13:01:45;19.50;15.25;10.50
68841;PMS5003;55849;48.482;2.332;2023-02-01T13:04:54;6.25;6.00;4.00
68841;PMS5003;55849;48.482;2.332;2023-02-01T13:08:04;2.00;2.00;0.00
68841;PMS5003;55849;48.482;2.332;2023-02-01T13:11:10;5.50;5.50;3.25
68841;PMS5003;55849;48.482;2.332;2023-02-01T13:14:22;12.00;10.00;6.00
68841;PMS5003;55849;48.482;2.332;2023-02-01T13:17:30;7.00;7.00;4.00
68841;PMS5003;55849;48.482;2.332;2023-02-01T13:20:37;1.00;1.00;0.75
68841;PMS5003;55849;48.482;2.332;2023-02-01T13:23:45;16.00;15.00;9.50
68841;PMS5003;55849;48.482;2.332;2023-02-01T13:26:49;4.00;4.00;1.00
68841;PMS5003;55849;48.482;2.332;2023-02-01T13:29:57;10.50;6.50;1.50
68841;PMS5003;55849;48.482;2.332;2023-02-01T13:33:14;1.50;1.50;1.00
68841;PMS5003;55849;48.482;2.332;2023-02-01T13:36:46;4.50;3.75;3.00
68841;PMS5003;55849;48.482;2.332;2023-02-01T13:39:59;3.50;3.50;2.00
68841;PMS5003;55849;48.482;2.332;2023-02-01T13:43:12;4.00;4.00;3.00
68841;PMS5003;55849;48.482;2.332;2023-02-01T13:46:19;6.25;5.50;2.00
68841;PMS5003;55849;48.482;2.332;2023-02-01T13:49:21;11.75;9.25;4.00
68841;PMS5003;55849;48.482;2.332;2023-02-01T13:52:34;4.00;4.00;3.00
68841;PMS5003;55849;48.482;2.332;2023-02-01T13:55:39;0.00;0.00;0.00
68841;PMS5003;55849;48.482;2.332;2023-02-01T13:58:43;6.75;3.75;3.00
68841;PMS5003;55849;48.482;2.332;2023-02-01T14:01:48;4.00;1.50;0.50
68841;PMS5003;55849;48.482;2.332;2023-02-01T14:04:50;3.25;3.25;1.00
68841;PMS5003;55849;48.482;2.332;2023-02-01T14:08:02;4.00;3.00;1.00
68841;PMS5003;55849;48.482;2.332;2023-02-01T14:11:33;0.00;0.00;0.00
68841;PMS5003;55849;48.482;2.332;2023-02-01T14:14:40;3.75;3.75;3.00
68841;PMS5003;55849;48.482;2.332;2023-02-01T14:17:43;3.00;3.00;1.50
68841;PMS5003;55849;48.482;2.332;2023-02-01T14:20:48;12.25;10.25;7.00
68841;PMS5003;55849;48.482;2.332;2023-02-01T14:23:55;15.25;15.25;10.00
68841;PMS5003;55849;48.482;2.332;2023-02-01T14:27:00;1.00;1.00;1.00
68841;PMS5003;55849;48.482;2.332;2023-02-01T14:30:05;8.75;8.50;4.00
68841;PMS5003;55849;48.482;2.332;2023-02-01T14:33:19;3.50;3.00;2.00
68841;PMS5003;55849;48.482;2.332;2023-02-01T14:36:22;56.00;40.75;24.50
68841;PMS5003;55849;48.482;2.332;2023-02-01T14:39:26;15.00;9.25;5.00
68841;PMS5003;55849;48.482;2.332;2023-02-01T14:42:33;48.00;37.25;25.25
68841;PMS5003;55849;48.482;2.332;2023-02-01T14:45:49;12.75;9.00;6.25
68841;PMS5003;55849;48.482;2.332;2023-02-01T14:48:53;8.00;5.50;3.25
68841;PMS5003;55849;48.482;2.332;2023-02-01T14:51:55;21.00;11.50;6.00
68841;PMS5003;55849;48.482;2.332;2023-02-01T14:55:00;19.75;15.50;10.00
68841;PMS5003;55849;48.482;2.332;2023-02-01T14:58:09;4.00;3.75;2.00
68841;PMS5003;55849;48.482;2.332;2023-02-01T15:01:20;4.00;4.00;3.00
68841;PMS5003;55849;48.482;2.332;2023-02-01T15:04:26;6.00;4.00;3.00
68841;PMS5003;55849;48.482;2.332;2023-02-01T15:07:28;1.50;0.00;0.00
68841;PMS5003;55849;48.482;2.332;2023-02-01T15:10:31;14.25;9.00;5.00
68841;PMS5003;55849;48.482;2.332;2023-02-01T15:13:35;24.75;16.75;7.00
68841;PMS5003;55849;48.482;2.332;2023-02-01T15:16:41;10.00;6.00;3.50
68841;PMS5003;55849;48.482;2.332;2023-02-01T15:19:54;28.00;23.75;12.75
68841;PMS5003;55849;48.482;2.332;2023-02-01T15:22:57;27.25;18.75;11.00
68841;PMS5003;55849;48.482;2.332;2023-02-01T15:26:00;24.50;23.50;16.50
68841;PMS5003;55849;48.482;2.332;2023-02-01T15:29:01;17.00;13.00;9.00
68841;PMS5003;55849;48.482;2.332;2023-02-01T15:32:03;8.00;4.00;1.00
68841;PMS5003;55849;48.482;2.332;2023-02-01T15:38:43;13.00;10.50;7.00
68841;PMS5003;55849;48.482;2.332;2023-02-01T15:41:46;19.25;15.25;10.50
68841;PMS5003;55849;48.482;2.332;2023-02-01T15:44:50;16.50;12.25;7.00
68841;PMS5003;55849;48.482;2.332;2023-02-01T15:47:52;5.50;4.00;3.00
68841;PMS5003;55849;48.482;2.332;2023-02-01T15:50:57;13.75;10.00;6.00
68841;PMS5003;55849;48.482;2.332;2023-02-01T15:54:00;17.75;13.00;8.25
68841;PMS5003;55849;48.482;2.332;2023-02-01T15:57:04;30.00;28.00;21.00
68841;PMS5003;55849;48.482;2.332;2023-02-01T16:00:07;29.25;23.75;15.00
68841;PMS5003;55849;48.482;2.332;2023-02-01T16:03:32;11.50;10.50;8.00
68841;PMS5003;55849;48.482;2.332;2023-02-01T16:06:44;6.00;3.75;1.00
68841;PMS5003;55849;48.482;2.332;2023-02-01T16:09:49;28.75;24.50;13.50
68841;PMS5003;55849;48.482;2.332;2023-02-01T16:12:54;23.50;20.50;13.25
68841;PMS5003;55849;48.482;2.332;2023-02-01T16:16:00;98.75;72.00;45.50
68841;PMS5003;55849;48.482;2.332;2023-02-01T16:19:01;45.50;40.50;29.75
68841;PMS5003;55849;48.482;2.332;2023-02-01T16:22:04;64.25;47.75;29.00
68841;PMS5003;55849;48.482;2.332;2023-02-01T16:25:06;23.75;18.00;12.00
68841;PMS5003;55849;48.482;2.332;2023-02-01T16:28:09;30.50;25.25;16.00
68841;PMS5003;55849;48.482;2.332;2023-02-01T16:31:11;21.75;13.50;9.50
68841;PMS5003;55849;48.482;2.332;2023-02-01T16:34:19;32.00;27.25;16.25
68841;PMS5003;55849;48.482;2.332;2023-02-01T16:37:22;27.00;21.00;14.00
68841;PMS5003;55849;48.482;2.332;2023-02-01T16:40:28;23.75;15.25;11.50
68841;PMS5003;55849;48.482;2.332;2023-02-01T16:43:29;19.00;17.50;13.00
68841;PMS5003;55849;48.482;2.332;2023-02-01T16:46:32;34.00;31.75;22.25
68841;PMS5003;55849;48.482;2.332;2023-02-01T16:49:35;20.50;20.50;13.50
68841;PMS5003;55849;48.482;2.332;2023-02-01T16:52:39;9.50;8.00;5.25
68841;PMS5003;55849;48.482;2.332;2023-02-01T16:55:41;15.00;14.25;9.25
68841;PMS5003;55849;48.482;2.332;2023-02-01T16:58:43;13.50;13.50;9.50
68841;PMS5003;55849;48.482;2.332;2023-02-01T17:01:45;20.00;18.25;13.00
68841;PMS5003;55849;48.482;2.332;2023-02-01T17:04:46;11.00;10.50;7.00
68841;PMS5003;55849;48.482;2.332;2023-02-01T17:07:50;16.25;10.25;6.50
68841;PMS5003;55849;48.482;2.332;2023-02-01T17:10:53;9.00;6.75;6.00
68841;PMS5003;55849;48.482;2.332;2023-02-01T17:13:55;8.50;7.00;5.25
68841;PMS5003;55849;48.482;2.332;2023-02-01T17:16:58;10.50;5.50;4.00
68841;PMS5003;55849;48.482;2.332;2023-02-01T17:20:00;8.75;6.00;4.00
68841;PMS5003;55849;48.482;2.332;2023-02-01T17:23:05;8.25;8.00;4.50
68841;PMS5003;55849;48.482;2.332;2023-02-01T17:26:08;9.25;7.75;5.50
68841;PMS5003;55849;48.482;2.332;2023-02-01T17:29:10;5.50;5.50;4.00
68841;PMS5003;55849;48.482;2.332;2023-02-01T17:32:13;6.00;6.00;4.00
68841;PMS5003;55849;48.482;2.332;2023-02-01T17:35:19;8.75;8.75;6.50
68841;PMS5003;55849;48.482;2.332;2023-02-01T17:38:24;20.25;12.25;9.50
68841;PMS5003;55849;48.482;2.332;2023-02-01T17:41:26;8.75;6.00;3.75
68841;PMS5003;55849;48.482;2.332;2023-02-01T17:44:27;10.50;10.50;7.00
68841;PMS5003;55849;48.482;2.332;2023-02-01T17:47:29;11.00;6.25;6.00
68841;PMS5003;55849;48.482;2.332;2023-02-01T17:50:33;14.25;13.00;9.00
68841;PMS5003;55849;48.482;2.332;2023-02-01T17:53:38;15.75;14.00;9.75
68841;PMS5003;55849;48.482;2.332;2023-02-01T17:56:39;16.25;10.75;7.00
68841;PMS5003;55849;48.482;2.332;2023-02-01T17:59:41;20.00;18.00;12.00
68841;PMS5003;55849;48.482;2.332;2023-02-01T18:02:43;18.75;12.75;9.75
68841;PMS5003;55849;48.482;2.332;2023-02-01T18:05:45;8.25;0.75;0.00
68841;PMS5003;55849;48.482;2.332;2023-02-01T18:08:51;20.50;18.75;13.00